createdAt,value
2022-09-03T00:00:26.946Z,18.31
2022-09-03T00:03:07.099Z,18.40
2022-09-03T00:06:01.043Z,18.41
2022-09-03T00:08:33.506Z,18.48
2022-09-03T00:11:23.038Z,18.63
2022-09-03T00:14:14.199Z,18.54
2022-09-03T00:16:52.972Z,18.71
2022-09-03T00:19:24.756Z,18.55
2022-09-03T00:22:02.906Z,18.50
2022-09-03T00:24:34.003Z,18.40
2022-09-03T00:27:05.324Z,18.42
2022-09-03T00:29:54.232Z,18.57
2022-09-03T00:32:27.858Z,18.48
2022-09-03T00:35:01.467Z,18.52
2022-09-03T00:37:30.120Z,18.56
2022-09-03T00:40:10.911Z,18.57
2022-09-03T00:42:55.393Z,18.38
2022-09-03T00:45:25.428Z,18.27
2022-09-03T00:48:27.925Z,18.21
2022-09-03T00:51:39.280Z,18.22
2022-09-03T00:54:25.531Z,18.11
2022-09-03T00:57:01.009Z,18.14
2022-09-03T00:59:42.001Z,18.09
2022-09-03T01:02:34.194Z,18.12
2022-09-03T01:05:11.640Z,18.23
2022-09-03T01:07:49.798Z,18.32
2022-09-03T01:10:50.578Z,18.28
2022-09-03T01:13:30.904Z,18.20
2022-09-03T01:16:20.509Z,18.13
2022-09-03T01:19:05.759Z,18.07
2022-09-03T01:21:49.886Z,18.11
2022-09-03T01:24:45.055Z,18.00
2022-09-03T01:27:35.788Z,18.05
2022-09-03T01:30:17.919Z,17.96
2022-09-03T01:33:04.247Z,18.06
2022-09-03T01:35:36.823Z,18.14
2022-09-03T01:38:18.305Z,17.98
2022-09-03T01:40:57.089Z,17.91
2022-09-03T01:43:51.794Z,17.94
2022-09-03T01:46:29.229Z,18.03
2022-09-03T01:49:11.773Z,17.93
2022-09-03T01:51:38.601Z,17.69
2022-09-03T01:54:29.874Z,17.65
2022-09-03T01:57:35.214Z,17.65
2022-09-03T02:00:06.116Z,17.54
2022-09-03T02:02:33.327Z,17.49
2022-09-03T02:05:09.993Z,17.54
2022-09-03T02:07:43.697Z,17.47
2022-09-03T02:10:18.027Z,17.39
2022-09-03T02:12:57.138Z,17.44
2022-09-03T02:15:26.086Z,17.40
2022-09-03T02:17:56.567Z,17.38
2022-09-03T02:20:26.663Z,17.47
2022-09-03T02:22:54.356Z,17.52
2022-09-03T02:25:23.754Z,17.29
2022-09-03T02:27:51.286Z,17.23
2022-09-03T02:30:18.675Z,17.23
2022-09-03T02:32:45.238Z,17.32
2022-09-03T02:35:14.980Z,17.33
2022-09-03T02:37:41.919Z,17.26
2022-09-03T02:40:10.376Z,17.10
2022-09-03T02:42:36.993Z,17.06
2022-09-03T02:45:29.980Z,16.94
2022-09-03T02:48:00.213Z,16.88
2022-09-03T02:50:27.440Z,17.01
2022-09-03T02:52:54.298Z,17.12
2022-09-03T02:55:21.295Z,17.09
2022-09-03T02:57:48.062Z,17.12
2022-09-03T03:00:17.734Z,16.90
2022-09-03T03:02:44.478Z,16.72
2022-09-03T03:05:18.699Z,16.72
2022-09-03T03:07:48.286Z,16.86
2022-09-03T03:10:14.950Z,17.03
2022-09-03T03:12:41.485Z,17.11
2022-09-03T03:15:08.333Z,17.13
2022-09-03T03:17:34.975Z,17.04
2022-09-03T03:20:01.591Z,17.16
2022-09-03T03:22:28.178Z,17.17
2022-09-03T03:24:57.004Z,17.21
2022-09-03T03:27:24.019Z,17.10
2022-09-03T03:29:50.813Z,17.10
2022-09-03T03:32:20.176Z,17.20
2022-09-03T03:34:49.890Z,17.18
2022-09-03T03:37:16.585Z,17.29
2022-09-03T03:39:43.233Z,17.17
2022-09-03T03:42:09.814Z,17.27
2022-09-03T03:44:36.334Z,17.23
2022-09-03T03:47:05.136Z,17.31
2022-09-03T03:49:31.706Z,17.44
2022-09-03T03:51:58.231Z,17.41
2022-09-03T03:54:24.785Z,17.42
2022-09-03T03:56:55.651Z,17.37
2022-09-03T03:59:22.833Z,17.34
2022-09-03T04:01:50.964Z,17.13
2022-09-03T04:04:18.026Z,17.22
2022-09-03T04:06:44.565Z,17.00
2022-09-03T04:09:11.125Z,17.19
2022-09-03T04:11:37.779Z,17.21
2022-09-03T04:14:04.686Z,17.37
2022-09-03T04:16:32.912Z,17.36
2022-09-03T04:18:59.628Z,17.27
2022-09-03T04:21:28.654Z,17.09
2022-09-03T04:23:56.279Z,17.19
2022-09-03T04:26:26.076Z,17.12
2022-09-03T04:28:52.861Z,16.98
2022-09-03T04:31:23.448Z,16.89
2022-09-03T04:33:51.266Z,16.72
2022-09-03T04:36:23.419Z,16.86
2022-09-03T04:38:54.181Z,16.78
2022-09-03T04:41:26.394Z,16.76
2022-09-03T04:43:54.421Z,16.84
2022-09-03T04:46:23.526Z,16.85
2022-09-03T04:48:51.903Z,16.73
2022-09-03T04:51:21.992Z,16.80
2022-09-03T04:53:54.500Z,16.74
2022-09-03T04:56:23.933Z,16.74
2022-09-03T04:58:57.873Z,16.85
2022-09-03T05:01:30.458Z,16.83
2022-09-03T05:03:58.204Z,16.84
2022-09-03T05:06:27.131Z,16.61
2022-09-03T05:08:55.615Z,16.78
2022-09-03T05:11:23.343Z,16.75
2022-09-03T05:13:54.954Z,16.63
2022-09-03T05:16:23.642Z,16.63
2022-09-03T05:18:55.113Z,16.56
2022-09-03T05:21:22.684Z,16.44
2022-09-03T05:23:54.206Z,16.75
2022-09-03T05:26:26.666Z,16.85
2022-09-03T05:28:55.390Z,16.83
2022-09-03T05:31:23.646Z,16.73
2022-09-03T05:33:55.392Z,16.80
2022-09-03T05:36:24.802Z,16.72
2022-09-03T05:38:54.814Z,16.51
2022-09-03T05:41:24.934Z,16.50
2022-09-03T05:43:55.986Z,16.69
2022-09-03T05:46:32.204Z,16.68
2022-09-03T05:49:06.910Z,16.55
2022-09-03T05:51:35.542Z,16.65
2022-09-03T05:54:03.021Z,16.78
2022-09-03T05:56:32.110Z,16.77
2022-09-03T05:59:01.686Z,16.72
2022-09-03T06:01:31.247Z,16.66
2022-09-03T06:04:06.490Z,16.82
2022-09-03T06:06:36.249Z,16.93
2022-09-03T06:09:17.892Z,16.97
2022-09-03T06:11:46.273Z,17.08
2022-09-03T06:14:14.408Z,17.20
2022-09-03T06:16:43.475Z,17.36
2022-09-03T06:19:16.149Z,17.33
2022-09-03T06:21:44.402Z,17.15
2022-09-03T06:24:16.880Z,17.37
2022-09-03T06:26:46.558Z,17.45
2022-09-03T06:29:13.542Z,17.53
2022-09-03T06:31:40.487Z,17.52
2022-09-03T06:34:07.733Z,17.44
2022-09-03T06:36:34.596Z,17.42
2022-09-03T06:39:01.607Z,17.42
2022-09-03T06:41:33.780Z,17.59
2022-09-03T06:44:03.291Z,17.61
2022-09-03T06:46:32.712Z,17.51
2022-09-03T06:48:59.422Z,17.47
2022-09-03T06:51:28.380Z,17.57
2022-09-03T06:54:00.971Z,17.76
2022-09-03T06:56:27.603Z,17.80
2022-09-03T06:58:57.682Z,18.04
2022-09-03T07:01:28.416Z,18.14
2022-09-03T07:03:56.968Z,18.17
2022-09-03T07:06:25.865Z,18.16
2022-09-03T07:08:52.996Z,18.39
2022-09-03T07:11:24.100Z,18.34
2022-09-03T07:13:55.874Z,18.19
2022-09-03T07:16:24.941Z,18.27
2022-09-03T07:18:52.764Z,18.41
2022-09-03T07:21:24.688Z,18.51
2022-09-03T07:23:55.419Z,18.54
2022-09-03T07:26:28.386Z,18.62
2022-09-03T07:28:56.012Z,18.71
2022-09-03T07:31:34.833Z,18.75
2022-09-03T07:34:09.904Z,18.91
2022-09-03T07:36:48.823Z,18.88
2022-09-03T07:39:16.471Z,18.68
2022-09-03T07:41:46.043Z,18.65
2022-09-03T07:44:15.365Z,18.79
2022-09-03T07:46:43.671Z,18.90
2022-09-03T07:49:11.014Z,18.99
2022-09-03T07:51:39.034Z,19.15
2022-09-03T07:54:08.308Z,19.25
2022-09-03T07:56:36.285Z,19.39
2022-09-03T07:59:04.105Z,19.49
2022-09-03T08:01:32.812Z,19.64
2022-09-03T08:04:00.115Z,19.95
2022-09-03T08:06:29.016Z,20.09
2022-09-03T08:09:04.152Z,20.18
2022-09-03T08:11:31.974Z,20.17
2022-09-03T08:14:07.843Z,20.14
2022-09-03T08:16:36.993Z,20.13
2022-09-03T08:19:10.644Z,20.15
2022-09-03T08:21:37.999Z,20.25
2022-09-03T08:24:05.129Z,20.45
2022-09-03T08:26:34.251Z,20.65
2022-09-03T08:29:01.888Z,20.81
2022-09-03T08:31:29.687Z,21.37
2022-09-03T08:33:58.555Z,22.39
2022-09-03T08:36:27.064Z,23.34
2022-09-03T08:38:55.438Z,23.86
2022-09-03T08:41:53.241Z,24.71
2022-09-03T08:44:30.743Z,25.47
2022-09-03T08:47:09.352Z,26.05
2022-09-03T08:50:01.550Z,26.53
2022-09-03T08:52:50.121Z,26.69
2022-09-03T08:55:27.420Z,27.19
2022-09-03T08:57:59.940Z,27.02
2022-09-03T09:00:38.987Z,26.38
2022-09-03T09:03:26.898Z,26.41
2022-09-03T09:06:18.724Z,26.08
2022-09-03T09:09:10.978Z,25.22
2022-09-03T09:11:43.557Z,24.63
2022-09-03T09:14:35.022Z,24.69
2022-09-03T09:17:14.996Z,25.27
2022-09-03T09:19:54.194Z,26.43
2022-09-03T09:22:30.406Z,27.26
2022-09-03T09:25:16.967Z,27.92
2022-09-03T09:28:14.236Z,27.63
2022-09-03T09:30:41.330Z,26.86
2022-09-03T09:33:07.898Z,26.55
2022-09-03T09:35:35.355Z,26.43
2022-09-03T09:38:02.334Z,26.71
2022-09-03T09:40:35.909Z,27.24
2022-09-03T09:43:21.873Z,27.61
2022-09-03T09:45:53.644Z,27.67
2022-09-03T09:48:31.391Z,27.60
2022-09-03T09:51:11.039Z,27.24
2022-09-03T09:53:38.490Z,26.14
2022-09-03T09:56:05.293Z,26.89
2022-09-03T09:58:34.493Z,27.59
2022-09-03T10:01:01.008Z,28.80
2022-09-03T10:03:29.877Z,29.77
2022-09-03T10:06:27.495Z,29.67
2022-09-03T10:09:08.627Z,29.83
2022-09-03T10:11:38.913Z,30.11
2022-09-03T10:14:11.568Z,30.51
2022-09-03T10:16:49.001Z,30.93
2022-09-03T10:19:17.384Z,31.09
2022-09-03T10:21:44.180Z,30.71
2022-09-03T10:24:33.848Z,31.05
2022-09-03T10:27:01.807Z,32.12
2022-09-03T10:29:30.113Z,32.62
2022-09-03T10:32:36.876Z,31.48
2022-09-03T10:35:29.704Z,30.52
2022-09-03T10:38:11.147Z,30.28
2022-09-03T10:40:59.628Z,29.74
2022-09-03T10:43:32.643Z,28.93
2022-09-03T10:46:00.162Z,29.15
2022-09-03T10:48:51.681Z,29.32
2022-09-03T10:51:42.641Z,29.06
2022-09-03T10:54:17.785Z,30.19
2022-09-03T10:57:02.909Z,30.21
2022-09-03T10:59:33.701Z,30.12
2022-09-03T11:02:18.335Z,30.18
2022-09-03T11:05:03.041Z,28.99
2022-09-03T11:07:39.079Z,28.96
2022-09-03T11:10:30.880Z,29.55
2022-09-03T11:12:57.872Z,30.20
2022-09-03T11:15:44.841Z,30.83
2022-09-03T11:18:16.828Z,32.19
2022-09-03T11:20:44.911Z,33.28
2022-09-03T11:23:16.053Z,33.42
2022-09-03T11:25:56.718Z,32.54
2022-09-03T11:28:28.898Z,32.83
2022-09-03T11:31:25.678Z,33.22
2022-09-03T11:34:01.702Z,33.73
2022-09-03T11:36:32.049Z,33.09
2022-09-03T11:38:59.654Z,32.13
2022-09-03T11:41:35.819Z,31.09
2022-09-03T11:44:22.939Z,30.33
2022-09-03T11:46:59.253Z,29.90
2022-09-03T11:49:31.741Z,30.48
2022-09-03T11:52:02.487Z,31.26
2022-09-03T11:54:32.959Z,32.32
2022-09-03T11:57:23.084Z,33.01
2022-09-03T11:59:49.856Z,32.94
2022-09-03T12:02:35.851Z,33.31
2022-09-03T12:05:23.306Z,34.08
2022-09-03T12:08:23.719Z,34.89
2022-09-03T12:10:59.651Z,34.75
2022-09-03T12:13:35.606Z,33.90
2022-09-03T12:16:16.498Z,34.48
2022-09-03T12:18:45.718Z,35.47
2022-09-03T12:21:12.754Z,35.78
2022-09-03T12:23:49.278Z,34.30
2022-09-03T12:26:28.703Z,32.81
2022-09-03T12:28:58.925Z,31.54
2022-09-03T12:31:32.530Z,30.40
2022-09-03T12:34:11.161Z,29.51
2022-09-03T12:36:43.104Z,28.92
2022-09-03T12:42:25.531Z,27.90
2022-09-03T12:44:53.338Z,27.78
2022-09-03T12:47:36.188Z,27.54
2022-09-03T12:50:13.710Z,27.48
2022-09-03T12:52:49.762Z,28.76
2022-09-03T12:55:35.213Z,29.59
2022-09-03T12:58:38.278Z,29.81
2022-09-03T13:01:14.735Z,29.73
2022-09-03T13:04:05.169Z,29.35
2022-09-03T13:06:50.354Z,28.99
2022-09-03T13:09:32.273Z,29.82
2022-09-03T13:11:59.254Z,30.86
2022-09-03T13:14:27.218Z,30.85
2022-09-03T13:17:07.871Z,30.23
2022-09-03T13:20:16.586Z,29.93
2022-09-03T13:23:12.505Z,29.47
2022-09-03T13:26:05.322Z,29.16
2022-09-03T13:29:10.887Z,29.76
2022-09-03T13:32:06.247Z,31.34
2022-09-03T13:34:32.903Z,31.12
2022-09-03T13:37:30.631Z,30.72
2022-09-03T13:40:11.050Z,30.39
2022-09-03T13:42:41.830Z,30.13
2022-09-03T13:45:29.110Z,30.17
2022-09-03T13:48:26.221Z,30.03
2022-09-03T13:51:09.849Z,29.62
2022-09-03T13:54:09.974Z,29.89
2022-09-03T13:56:52.330Z,31.55
2022-09-03T13:59:40.793Z,32.88
2022-09-03T14:02:29.289Z,32.75
2022-09-03T14:05:08.052Z,32.63
2022-09-03T14:07:34.946Z,33.10
2022-09-03T14:10:15.731Z,33.81
2022-09-03T14:12:47.441Z,34.30
2022-09-03T14:15:37.265Z,33.54
2022-09-03T14:18:29.348Z,32.89
2022-09-03T14:21:08.215Z,33.50
2022-09-03T14:23:46.157Z,34.25
2022-09-03T14:26:38.565Z,33.61
2022-09-03T14:29:11.664Z,32.92
2022-09-03T14:32:05.411Z,32.15
2022-09-03T14:34:50.814Z,32.47
2022-09-03T14:37:49.902Z,33.08
2022-09-03T14:40:43.902Z,33.45
2022-09-03T14:43:20.517Z,33.29
2022-09-03T14:46:18.208Z,33.66
2022-09-03T14:49:27.107Z,34.27
2022-09-03T14:52:03.624Z,34.63
2022-09-03T14:54:50.313Z,34.31
2022-09-03T14:57:49.697Z,34.11
2022-09-03T15:00:22.443Z,34.16
2022-09-03T15:03:16.308Z,34.05
2022-09-03T15:06:09.024Z,34.32
2022-09-03T15:08:36.339Z,34.30
2022-09-03T15:11:14.762Z,34.21
2022-09-03T15:14:13.146Z,33.93
2022-09-03T15:16:59.987Z,33.70
2022-09-03T15:20:03.890Z,33.51
2022-09-03T15:22:30.370Z,33.04
2022-09-03T15:25:22.296Z,32.84
2022-09-03T15:28:02.982Z,32.74
2022-09-03T15:30:48.737Z,32.34
2022-09-03T15:33:36.198Z,31.96
2022-09-03T15:36:28.089Z,31.86
2022-09-03T15:39:06.749Z,31.95
2022-09-03T15:41:58.421Z,32.01
2022-09-03T15:44:28.493Z,31.99
2022-09-03T15:47:05.370Z,31.89
2022-09-03T15:50:02.985Z,31.59
2022-09-03T15:53:28.830Z,31.10
2022-09-03T15:56:26.105Z,31.11
2022-09-03T15:59:14.562Z,30.86
2022-09-03T16:01:54.593Z,31.01
2022-09-03T16:04:36.442Z,30.96
2022-09-03T16:07:21.412Z,30.87
2022-09-03T16:10:30.246Z,30.51
2022-09-03T16:13:09.830Z,30.38
2022-09-03T16:15:45.834Z,30.41
2022-09-03T16:18:30.638Z,30.73
2022-09-03T16:21:04.345Z,30.75
2022-09-03T16:24:09.878Z,30.74
2022-09-03T16:26:46.645Z,30.61
2022-09-03T16:29:16.070Z,30.47
2022-09-03T16:32:12.503Z,30.18
2022-09-03T16:35:03.806Z,30.04
2022-09-03T16:37:52.447Z,29.92
2022-09-03T16:40:27.971Z,29.86
2022-09-03T16:42:57.560Z,29.73
2022-09-03T16:45:39.524Z,29.65
2022-09-03T16:48:06.054Z,29.51
2022-09-03T16:50:41.319Z,29.46
2022-09-03T16:54:03.249Z,29.33
2022-09-03T16:56:50.347Z,29.09
2022-09-03T16:59:41.752Z,28.99
2022-09-03T17:02:41.477Z,28.94
2022-09-03T17:05:35.040Z,28.78
2022-09-03T17:08:15.930Z,28.65
2022-09-03T17:11:20.338Z,28.39
2022-09-03T17:14:31.459Z,27.90
2022-09-03T17:17:09.774Z,27.46
2022-09-03T17:20:33.125Z,27.07
2022-09-03T17:23:38.008Z,26.80
2022-09-03T17:26:13.030Z,26.65
2022-09-03T17:29:10.205Z,26.41
2022-09-03T17:31:51.549Z,26.15
2022-09-03T17:34:36.828Z,25.88
2022-09-03T17:37:31.561Z,25.62
2022-09-03T17:40:32.724Z,25.38
2022-09-03T17:43:28.368Z,25.22
2022-09-03T17:46:09.810Z,25.05
2022-09-03T17:48:49.830Z,24.81
2022-09-03T17:51:32.751Z,24.68
2022-09-03T17:54:34.555Z,24.51
2022-09-03T17:57:21.893Z,24.32
2022-09-03T18:00:09.815Z,24.19
2022-09-03T18:02:43.945Z,24.09
2022-09-03T18:05:25.067Z,24.01
2022-09-03T18:08:04.209Z,24.04
2022-09-03T18:10:44.128Z,24.11
2022-09-03T18:13:24.857Z,24.16
2022-09-03T18:16:18.295Z,24.13
2022-09-03T18:18:52.816Z,24.09
2022-09-03T18:21:44.062Z,23.96
2022-09-03T18:24:50.652Z,23.76
2022-09-03T18:27:55.234Z,23.55
2022-09-03T18:30:40.613Z,23.29
2022-09-03T18:33:26.006Z,23.26
2022-09-03T18:36:11.258Z,23.22
2022-09-03T18:38:57.814Z,23.14
2022-09-03T18:42:11.986Z,23.02
2022-09-03T18:45:22.962Z,22.85
2022-09-03T18:48:40.730Z,22.71
2022-09-03T18:51:53.349Z,22.62
2022-09-03T18:55:23.732Z,22.51
2022-09-03T18:58:22.387Z,22.42
2022-09-03T19:01:57.138Z,22.32
2022-09-03T19:05:07.635Z,22.24
2022-09-03T19:08:11.521Z,22.20
2022-09-03T19:11:13.366Z,22.04
2022-09-03T19:14:00.016Z,22.06
2022-09-03T19:17:05.975Z,21.99
2022-09-03T19:19:53.754Z,21.93
2022-09-03T19:22:48.178Z,21.79
2022-09-03T19:25:34.650Z,21.71
2022-09-03T19:28:33.703Z,21.62
2022-09-03T19:31:55.146Z,21.45
2022-09-03T19:35:04.328Z,21.50
2022-09-03T19:38:11.308Z,21.38
2022-09-03T19:41:04.664Z,21.29
2022-09-03T19:44:03.767Z,21.19
2022-09-03T19:46:59.376Z,21.17
2022-09-03T19:49:50.591Z,21.13
2022-09-03T19:52:48.727Z,21.08
2022-09-03T19:55:40.245Z,20.90
2022-09-03T19:58:42.074Z,21.04
2022-09-03T20:01:29.513Z,21.02
2022-09-03T20:04:17.720Z,20.99
2022-09-03T20:07:04.327Z,20.89
2022-09-03T20:09:56.334Z,20.79
2022-09-03T20:12:27.907Z,20.60
2022-09-03T20:14:54.455Z,20.56
2022-09-03T20:17:45.976Z,20.54
2022-09-03T20:20:41.965Z,20.48
2022-09-03T20:23:37.844Z,20.37
2022-09-03T20:26:07.287Z,20.28
2022-09-03T20:29:15.524Z,20.00
2022-09-03T20:31:55.462Z,20.06
2022-09-03T20:34:35.890Z,20.11
2022-09-03T20:37:17.438Z,20.08
2022-09-03T20:40:08.408Z,20.02
2022-09-03T20:43:07.579Z,19.89
2022-09-03T20:46:06.964Z,19.92
2022-09-03T20:48:49.512Z,19.92
2022-09-03T20:51:28.834Z,19.88
2022-09-03T20:54:08.778Z,19.72
2022-09-03T20:56:57.104Z,19.81
2022-09-03T20:59:44.463Z,19.79
2022-09-03T21:02:30.446Z,19.83
2022-09-03T21:05:15.371Z,19.77
2022-09-03T21:07:44.933Z,19.72
2022-09-03T21:10:24.862Z,19.60
2022-09-03T21:13:22.315Z,19.46
2022-09-03T21:15:56.625Z,19.33
2022-09-03T21:18:48.460Z,19.25
2022-09-03T21:21:36.244Z,19.31
2022-09-03T21:24:10.363Z,19.33
2022-09-03T21:26:46.098Z,19.32
2022-09-03T21:29:22.188Z,19.32
2022-09-03T21:31:54.907Z,19.31
2022-09-03T21:34:30.999Z,19.12
2022-09-03T21:37:01.228Z,18.94
2022-09-03T21:39:43.275Z,18.94
2022-09-03T21:42:30.764Z,18.91
2022-09-03T21:45:12.809Z,18.79
2022-09-03T21:47:47.637Z,18.89
2022-09-03T21:50:20.665Z,18.93
2022-09-03T21:53:15.913Z,18.96
2022-09-03T21:56:08.218Z,18.95
2022-09-03T21:59:09.005Z,18.85
2022-09-03T22:01:58.973Z,18.81
2022-09-03T22:04:26.870Z,18.71
2022-09-03T22:07:38.098Z,18.70
2022-09-03T22:10:20.344Z,18.70
2022-09-03T22:13:00.622Z,18.64
2022-09-03T22:15:28.575Z,18.60
2022-09-03T22:18:23.703Z,18.56
2022-09-03T22:21:04.371Z,18.50
2022-09-03T22:23:43.646Z,18.37
2022-09-03T22:26:23.575Z,18.20
2022-09-03T22:29:03.868Z,18.28
2022-09-03T22:32:01.248Z,18.28
2022-09-03T22:34:33.618Z,18.34
2022-09-03T22:37:06.816Z,18.30
2022-09-03T22:39:40.520Z,18.22
2022-09-03T22:42:27.419Z,18.23
2022-09-03T22:45:20.417Z,18.20
2022-09-03T22:48:06.856Z,18.09
2022-09-03T22:50:58.966Z,18.02
2022-09-03T22:53:53.410Z,18.04
2022-09-03T22:56:22.447Z,18.05
2022-09-03T22:58:55.789Z,17.87
2022-09-03T23:01:30.733Z,17.88
2022-09-03T23:04:06.963Z,17.93
2022-09-03T23:06:38.505Z,17.81
2022-09-03T23:09:10.014Z,17.86
2022-09-03T23:11:43.762Z,17.83
2022-09-03T23:14:24.458Z,17.76
2022-09-03T23:16:55.985Z,17.72
2022-09-03T23:19:44.700Z,17.70
2022-09-03T23:22:17.956Z,17.72
2022-09-03T23:24:44.511Z,17.72
2022-09-03T23:27:18.862Z,17.63
2022-09-03T23:29:51.106Z,17.56
2022-09-03T23:32:17.646Z,17.45
2022-09-03T23:34:44.433Z,17.50
2022-09-03T23:37:34.483Z,17.56
2022-09-03T23:40:07.645Z,17.56
2022-09-03T23:43:31.117Z,17.49
2022-09-03T23:46:03.952Z,17.49
2022-09-03T23:48:45.591Z,17.56
2022-09-03T23:51:24.281Z,17.71
2022-09-03T23:54:18.631Z,17.49
2022-09-03T23:56:50.966Z,17.42
2022-09-03T23:59:28.825Z,17.29
